createdAt,value
2019-06-10T00:00:31.259Z,1.37
2019-06-10T00:05:34.693Z,1.45
2019-06-10T00:10:38.155Z,1.20
2019-06-10T00:15:41.635Z,1.70
2019-06-10T00:20:45.259Z,1.27
2019-06-10T00:25:51.403Z,0.98
2019-06-10T00:30:53.908Z,1.50
2019-06-10T00:35:57.369Z,1.75
2019-06-10T00:41:03.929Z,1.60
2019-06-10T00:46:07.458Z,1.60
2019-06-10T00:51:13.093Z,1.40
2019-06-10T00:56:16.495Z,1.40
2019-06-10T01:01:21.955Z,1.15
2019-06-10T01:06:25.146Z,2.12
2019-06-10T01:11:30.869Z,1.80
2019-06-10T01:16:33.823Z,1.40
2019-06-10T01:21:37.337Z,1.50
2019-06-10T01:26:41.238Z,1.45
2019-06-10T01:31:44.849Z,1.30
2019-06-10T01:36:50.782Z,1.70
2019-06-10T01:41:54.361Z,1.32
2019-06-10T01:46:57.825Z,1.35
2019-06-10T01:52:01.782Z,1.90
2019-06-10T01:57:05.231Z,1.25
2019-06-10T02:02:16.157Z,1.50
2019-06-10T02:07:19.986Z,1.40
2019-06-10T02:12:24.290Z,1.82
2019-06-10T02:17:27.789Z,1.40
2019-06-10T02:22:31.825Z,1.62
2019-06-10T02:27:35.416Z,1.32
2019-06-10T02:32:38.887Z,1.50
2019-06-10T02:37:44.508Z,1.35
2019-06-10T02:42:49.209Z,1.67
2019-06-10T02:47:53.447Z,1.42
2019-06-10T02:52:56.917Z,1.65
2019-06-10T02:58:03.943Z,1.60
2019-06-10T03:03:07.146Z,1.27
2019-06-10T03:08:13.146Z,1.50
2019-06-10T03:13:15.794Z,1.57
2019-06-10T03:18:19.902Z,1.52
2019-06-10T03:23:26.422Z,1.52
2019-06-10T03:28:28.590Z,1.50
2019-06-10T03:33:40.871Z,1.67
2019-06-10T03:38:37.281Z,1.50
2019-06-10T03:43:42.953Z,1.77
2019-06-10T03:48:46.084Z,1.77
2019-06-10T03:53:49.545Z,1.70
2019-06-10T03:58:53.008Z,1.70
2019-06-10T04:03:56.549Z,2.08
2019-06-10T04:09:00.009Z,1.50
2019-06-10T04:14:03.473Z,1.57
2019-06-10T04:19:06.929Z,1.50
2019-06-10T04:24:12.669Z,1.50
2019-06-10T04:29:15.582Z,1.40
2019-06-10T04:34:20.394Z,1.80
2019-06-10T04:39:26.046Z,1.90
2019-06-10T04:44:29.510Z,1.62
2019-06-10T04:49:32.994Z,2.05
2019-06-10T04:54:36.441Z,2.50
2019-06-10T04:59:39.907Z,1.47
2019-06-10T05:04:44.244Z,1.80
2019-06-10T05:09:47.706Z,2.47
2019-06-10T05:14:52.673Z,2.55
2019-06-10T05:19:56.305Z,1.72
2019-06-10T05:25:02.273Z,1.85
2019-06-10T05:30:07.500Z,2.02
2019-06-10T05:35:12.368Z,2.00
2019-06-10T05:40:15.973Z,1.50
2019-06-10T05:45:19.436Z,1.77
2019-06-10T05:50:24.059Z,2.00
2019-06-10T05:55:29.077Z,1.85
2019-06-10T06:00:35.311Z,1.77
2019-06-10T06:05:38.144Z,1.90
2019-06-10T06:10:42.426Z,1.70
2019-06-10T06:15:45.940Z,1.80
2019-06-10T06:20:49.405Z,1.50
2019-06-10T06:25:53.298Z,1.85
2019-06-10T06:30:56.813Z,2.08
2019-06-10T06:36:03.153Z,1.67
2019-06-10T06:41:05.710Z,1.62
2019-06-10T06:46:09.183Z,1.52
2019-06-10T06:51:12.939Z,1.85
2019-06-10T06:56:16.795Z,1.50
2019-06-10T07:01:23.239Z,2.00
2019-06-10T07:06:26.128Z,1.90
2019-06-10T07:11:33.962Z,2.65
2019-06-10T07:16:39.177Z,2.42
2019-06-10T07:22:02.304Z,2.45
2019-06-10T07:26:53.951Z,2.10
2019-06-10T07:31:53.830Z,1.80
2019-06-10T07:36:57.345Z,2.00
2019-06-10T07:42:03.029Z,2.12
2019-06-10T07:47:05.985Z,2.02
2019-06-10T07:52:15.873Z,1.87
2019-06-10T07:57:14.626Z,1.90
2019-06-10T08:02:18.093Z,1.57
2019-06-10T08:07:22.509Z,1.82
2019-06-10T08:12:26.092Z,1.98
2019-06-10T08:17:29.548Z,1.85
2019-06-10T08:22:37.277Z,2.15
2019-06-10T08:27:38.546Z,1.82
2019-06-10T08:32:45.294Z,1.87
2019-06-10T08:37:47.470Z,2.15
2019-06-10T08:42:53.552Z,1.65
2019-06-10T08:47:56.132Z,2.20
2019-06-10T08:53:13.281Z,2.05
2019-06-10T08:58:05.508Z,1.70
2019-06-10T09:03:09.209Z,1.82
2019-06-10T09:08:13.034Z,1.72
2019-06-10T09:13:16.731Z,1.80
2019-06-10T09:18:23.185Z,1.70
2019-06-10T09:23:25.932Z,1.72
2019-06-10T09:28:29.449Z,2.35
2019-06-10T09:33:33.288Z,1.82
2019-06-10T09:38:36.894Z,1.80
2019-06-10T09:43:45.390Z,1.60
2019-06-10T09:48:50.348Z,1.52
2019-06-10T09:54:02.349Z,1.35
2019-06-10T09:58:58.048Z,1.62
2019-06-10T10:04:01.538Z,1.50
2019-06-10T10:09:06.848Z,2.00
2019-06-10T10:14:15.285Z,1.90
2019-06-10T10:19:15.595Z,2.10
2019-06-10T10:24:19.157Z,2.02
2019-06-10T10:29:22.884Z,1.57
2019-06-10T10:34:26.522Z,1.60
2019-06-10T10:39:32.582Z,1.70
2019-06-10T10:44:35.235Z,1.77
2019-06-10T10:49:38.713Z,1.77
2019-06-10T10:54:43.195Z,2.10
2019-06-10T10:59:47.811Z,1.40
2019-06-10T11:04:55.145Z,1.98
2019-06-10T11:09:56.979Z,1.62
2019-06-10T11:15:02.908Z,1.40
2019-06-10T11:20:07.395Z,1.60
2019-06-10T11:25:12.585Z,1.65
2019-06-10T11:30:16.276Z,2.03
2019-06-10T11:35:19.895Z,1.60
2019-06-10T11:40:24.281Z,1.40
2019-06-10T11:45:28.005Z,1.55
2019-06-10T11:50:33.438Z,1.50
2019-06-10T11:55:37.042Z,1.40
2019-06-10T12:00:42.643Z,1.80
2019-06-10T12:05:45.837Z,1.65
2019-06-10T12:10:49.323Z,2.00
2019-06-10T12:16:32.721Z,1.45
2019-06-10T12:21:00.452Z,1.47
2019-06-10T12:26:04.742Z,1.40
2019-06-10T12:31:08.683Z,1.45
2019-06-10T12:36:12.984Z,1.57
2019-06-10T12:41:16.995Z,1.42
2019-06-10T12:46:22.640Z,1.70
2019-06-10T12:51:26.548Z,1.37
2019-06-10T12:56:32.623Z,1.65
2019-06-10T13:01:35.411Z,1.57
2019-06-10T13:06:40.412Z,1.20
2019-06-10T13:11:43.892Z,1.70
2019-06-10T13:16:47.354Z,1.72
2019-06-10T13:53:34.133Z,1.98
2019-06-10T13:58:37.608Z,1.32
2019-06-10T14:03:43.278Z,1.60
2019-06-10T14:08:46.284Z,1.72
2019-06-10T14:13:49.757Z,1.62
2019-06-10T14:18:54.191Z,1.87
2019-06-10T14:23:57.969Z,1.70
2019-06-10T14:29:03.025Z,1.67
2019-06-10T14:39:23.254Z,1.67
2019-06-10T14:44:26.759Z,1.60
2019-06-10T14:49:30.231Z,1.77
2019-06-10T14:54:35.487Z,1.87
2019-06-10T14:59:38.962Z,1.57
2019-06-10T15:04:42.650Z,2.45
2019-06-10T15:09:46.168Z,1.92
2019-06-10T15:14:52.014Z,1.92
2019-06-10T15:51:52.672Z,2.02
2019-06-10T15:56:56.768Z,1.92
2019-06-10T16:02:02.389Z,2.20
2019-06-10T16:07:05.641Z,2.17
2019-06-10T16:12:09.095Z,2.60
2019-06-10T16:17:14.070Z,2.22
2019-06-10T16:22:17.732Z,1.95
2019-06-10T16:27:24.430Z,2.00
2019-06-10T16:32:26.642Z,1.95
2019-06-10T16:37:32.795Z,2.27
2019-06-10T16:42:36.344Z,2.22
2019-06-10T16:47:39.800Z,2.02
2019-06-10T16:52:43.293Z,2.27
2019-06-10T16:57:58.589Z,2.30
2019-06-10T17:02:52.931Z,2.00
2019-06-10T17:07:56.782Z,2.15
2019-06-10T17:13:04.617Z,2.30
2019-06-10T17:18:08.072Z,2.17
2019-06-10T17:23:24.657Z,2.40
2019-06-10T17:28:29.748Z,2.02
2019-06-10T17:33:35.252Z,2.58
2019-06-10T17:38:37.016Z,2.42
2019-06-10T17:43:42.756Z,2.20
2019-06-10T17:48:45.735Z,1.90
2019-06-10T17:53:49.214Z,2.37
2019-06-10T17:58:57.761Z,2.55
2019-06-10T18:03:57.856Z,2.00
2019-06-10T18:09:03.851Z,2.65
2019-06-10T18:14:06.737Z,2.15
2019-06-10T18:19:10.203Z,2.02
2019-06-10T18:24:13.663Z,2.70
2019-06-10T18:29:17.114Z,2.12
2019-06-10T18:34:22.673Z,2.52
2019-06-10T18:39:25.765Z,2.17
2019-06-10T18:44:29.761Z,2.52
2019-06-10T18:49:35.811Z,2.17
2019-06-10T18:54:40.042Z,2.40
2019-06-10T18:59:43.510Z,2.52
2019-06-10T19:04:46.967Z,2.75
2019-06-10T19:09:52.725Z,3.55
2019-06-10T19:14:55.625Z,2.55
2019-06-10T19:19:59.076Z,3.72
2019-06-10T19:25:03.640Z,3.40
2019-06-10T19:30:08.384Z,3.12
2019-06-10T19:35:13.130Z,3.25
2019-06-10T19:40:17.769Z,3.62
2019-06-10T19:45:22.861Z,2.83
2019-06-10T19:50:26.396Z,2.30
2019-06-10T19:55:32.023Z,2.72
2019-06-10T20:00:35.903Z,2.83
2019-06-10T20:05:40.063Z,2.50
2019-06-10T20:10:44.514Z,2.22
2019-06-10T20:15:48.357Z,2.15
2019-06-10T20:20:53.999Z,2.58
2019-06-10T20:25:57.089Z,2.40
2019-06-10T20:31:00.551Z,2.50
2019-06-10T20:36:08.031Z,2.72
2019-06-10T20:41:09.569Z,2.90
2019-06-10T20:46:13.278Z,2.40
2019-06-10T20:51:16.778Z,3.00
2019-06-10T20:56:21.078Z,3.10
2019-06-10T21:01:25.792Z,2.42
2019-06-10T21:06:32.678Z,2.92
2019-06-10T21:11:36.296Z,2.70
2019-06-10T21:16:39.964Z,2.40
2019-06-10T21:21:45.651Z,2.30
2019-06-10T21:26:49.750Z,2.37
2019-06-10T21:31:54.796Z,2.33
2019-06-10T21:36:58.511Z,3.30
2019-06-10T21:42:02.404Z,2.70
2019-06-10T21:47:05.907Z,2.95
2019-06-10T21:52:12.941Z,3.10
2019-06-10T21:57:16.088Z,3.08
2019-06-10T22:02:19.617Z,2.83
2019-06-10T22:07:23.078Z,3.05
2019-06-10T22:12:26.544Z,2.87
2019-06-10T22:17:29.998Z,2.62
2019-06-10T22:22:33.451Z,2.15
2019-06-10T22:27:36.912Z,2.55
2019-06-10T22:32:42.790Z,2.10
2019-06-10T22:37:45.660Z,2.50
2019-06-10T22:42:49.321Z,2.47
2019-06-10T22:47:55.253Z,2.20
2019-06-10T22:52:58.024Z,2.27
2019-06-10T22:58:05.290Z,2.35
2019-06-10T23:03:06.820Z,2.10
2019-06-10T23:08:12.419Z,2.30
2019-06-10T23:13:17.004Z,2.27
2019-06-10T23:18:22.434Z,1.92
2019-06-10T23:23:25.793Z,2.33
2019-06-10T23:28:29.249Z,2.45
2019-06-10T23:33:32.879Z,2.75
2019-06-10T23:38:36.341Z,2.10
2019-06-10T23:43:42.180Z,2.40
2019-06-10T23:48:44.971Z,2.22
2019-06-10T23:53:48.429Z,2.45
2019-06-10T23:58:52.819Z,2.70
